createdAt,value
2022-10-16T00:21:18.324Z,15.80
2022-10-16T00:24:08.015Z,16.40
2022-10-16T00:27:40.379Z,14.90
2022-10-16T00:30:37.494Z,14.40
2022-10-16T00:33:10.352Z,15.00
2022-10-16T00:37:27.505Z,14.30
2022-10-16T00:40:10.701Z,13.70
2022-10-16T00:43:19.213Z,13.60
2022-10-16T00:46:52.235Z,13.20
2022-10-16T00:49:36.950Z,12.30
2022-10-16T00:53:01.732Z,11.50
2022-10-16T00:56:04.305Z,11.00
2022-10-16T00:58:47.658Z,11.40
2022-10-16T01:01:39.484Z,9.50
2022-10-16T01:04:43.084Z,9.70
2022-10-16T01:07:45.682Z,10.50
2022-10-16T01:10:49.556Z,9.20
2022-10-16T01:13:46.120Z,8.70
2022-10-16T01:17:15.821Z,9.20
2022-10-16T01:20:48.845Z,9.40
2022-10-16T01:24:38.456Z,9.00
2022-10-16T01:28:05.954Z,10.10
2022-10-16T01:30:54.302Z,8.30
2022-10-16T01:34:01.105Z,9.60
2022-10-16T01:56:38.441Z,8.60
2022-10-16T01:59:22.694Z,8.90
2022-10-16T02:02:09.854Z,9.30
2022-10-16T02:05:32.142Z,8.70
2022-10-16T02:08:18.920Z,8.80
2022-10-16T02:11:08.731Z,10.30
2022-10-16T02:14:32.193Z,8.30
2022-10-16T02:17:26.049Z,8.10
2022-10-16T02:20:13.706Z,7.50
2022-10-16T02:23:02.426Z,9.30
2022-10-16T02:25:44.273Z,8.10
2022-10-16T02:28:45.952Z,7.70
2022-10-16T02:32:03.312Z,7.30
2022-10-16T02:34:36.286Z,8.10
2022-10-16T02:37:59.559Z,8.90
2022-10-16T02:40:19.249Z,7.60
2022-10-16T02:45:46.909Z,9.00
2022-10-16T02:48:19.692Z,7.60
2022-10-16T02:51:05.167Z,7.20
2022-10-16T02:53:53.211Z,7.50
2022-10-16T02:57:02.876Z,7.10
2022-10-16T02:59:39.038Z,7.10
2022-10-16T03:03:09.694Z,7.30
2022-10-16T03:09:18.135Z,6.50
2022-10-16T03:12:14.763Z,7.80
2022-10-16T03:15:08.949Z,7.40
2022-10-16T03:17:50.766Z,6.80
2022-10-16T03:26:48.882Z,6.50
2022-10-16T03:29:48.552Z,6.80
2022-10-16T03:32:30.929Z,7.20
2022-10-16T03:35:17.039Z,7.40
2022-10-16T03:38:21.350Z,7.50
2022-10-16T03:41:27.376Z,9.30
2022-10-16T03:44:14.918Z,7.70
2022-10-16T03:46:54.803Z,7.40
2022-10-16T03:49:38.466Z,8.00
2022-10-16T03:52:30.760Z,8.50
2022-10-16T03:55:08.962Z,7.70
2022-10-16T03:57:57.677Z,7.90
2022-10-16T04:04:34.230Z,8.50
2022-10-16T04:07:18.545Z,7.80
2022-10-16T04:13:05.947Z,8.10
2022-10-16T04:15:51.297Z,8.20
2022-10-16T04:18:45.175Z,8.50
2022-10-16T04:21:41.193Z,9.30
2022-10-16T04:24:22.137Z,10.70
2022-10-16T04:27:41.053Z,10.00
2022-10-16T04:30:25.817Z,12.40
2022-10-16T04:35:36.481Z,11.80
2022-10-16T04:38:14.629Z,12.20
2022-10-16T04:41:02.024Z,14.20
2022-10-16T04:43:37.668Z,12.50
2022-10-16T04:46:20.704Z,12.80
2022-10-16T04:49:26.700Z,16.00
2022-10-16T04:52:18.461Z,13.30
2022-10-16T04:55:01.481Z,15.10
2022-10-16T04:57:37.592Z,15.80
2022-10-16T05:00:15.232Z,15.00
2022-10-16T05:02:50.009Z,16.00
2022-10-16T05:05:25.327Z,18.30
2022-10-16T05:08:07.782Z,17.80
2022-10-16T05:10:49.766Z,17.30
2022-10-16T05:13:37.025Z,18.40
2022-10-16T05:16:24.491Z,19.10
2022-10-16T05:22:07.222Z,19.70
2022-10-16T05:24:57.313Z,17.90
2022-10-16T05:27:54.867Z,18.30
2022-10-16T05:30:58.964Z,19.70
2022-10-16T05:34:00.931Z,19.70
2022-10-16T05:36:38.736Z,20.30
2022-10-16T05:39:16.824Z,18.30
2022-10-16T05:41:47.637Z,19.50
2022-10-16T05:47:19.383Z,20.40
2022-10-16T05:50:07.542Z,19.90
2022-10-16T05:52:43.833Z,20.10
2022-10-16T05:55:25.389Z,20.90
2022-10-16T05:58:39.117Z,18.00
2022-10-16T06:04:35.232Z,20.40
2022-10-16T06:07:17.679Z,21.50
2022-10-16T06:09:55.381Z,21.20
2022-10-16T06:12:38.081Z,22.90
2022-10-16T06:15:16.419Z,20.50
2022-10-16T06:17:46.046Z,31.00
2022-10-16T06:20:17.738Z,49.90
2022-10-16T06:22:53.770Z,38.60
2022-10-16T06:25:34.988Z,28.20
2022-10-16T06:28:14.402Z,24.50
2022-10-16T06:30:52.885Z,24.20
2022-10-16T06:33:51.045Z,25.80
2022-10-16T06:36:37.950Z,26.50
2022-10-16T06:41:14.068Z,23.30
2022-10-16T06:43:54.307Z,22.90
2022-10-16T06:46:32.550Z,22.00
2022-10-16T06:49:08.844Z,22.80
2022-10-16T06:52:01.792Z,24.00
2022-10-16T06:54:53.143Z,23.30
2022-10-16T06:58:28.683Z,23.70
2022-10-16T07:00:52.597Z,25.30
2022-10-16T07:03:42.442Z,29.10
2022-10-16T07:06:26.576Z,24.30
2022-10-16T07:09:22.386Z,25.30
2022-10-16T07:12:55.115Z,27.00
2022-10-16T07:15:44.932Z,25.30
2022-10-16T07:18:58.977Z,23.10
2022-10-16T07:21:53.124Z,24.50
2022-10-16T07:24:30.238Z,21.90
2022-10-16T07:27:06.233Z,21.70
2022-10-16T07:30:03.725Z,23.50
2022-10-16T07:33:18.375Z,20.50
2022-10-16T07:36:15.862Z,19.70
2022-10-16T07:38:57.110Z,21.80
2022-10-16T07:41:46.338Z,21.40
2022-10-16T07:44:20.431Z,24.70
2022-10-16T07:47:05.122Z,22.20
2022-10-16T07:52:55.120Z,19.90
2022-10-16T07:55:42.874Z,20.20
2022-10-16T07:58:54.672Z,18.20
2022-10-16T08:01:58.263Z,16.70
2022-10-16T08:05:17.604Z,13.20
2022-10-16T08:11:41.956Z,11.70
2022-10-16T08:21:10.865Z,10.50
2022-10-16T08:24:27.159Z,9.80
2022-10-16T08:26:59.918Z,8.90
2022-10-16T08:32:43.620Z,9.50
2022-10-16T08:35:40.561Z,9.50
2022-10-16T08:38:52.000Z,9.60
2022-10-16T08:42:04.718Z,9.50
2022-10-16T08:45:41.036Z,7.90
2022-10-16T08:48:50.251Z,13.20
2022-10-16T08:52:25.757Z,12.30
2022-10-16T08:55:09.349Z,10.60
2022-10-16T08:58:30.623Z,8.50
2022-10-16T09:01:20.500Z,9.10
2022-10-16T09:04:56.300Z,8.10
2022-10-16T09:08:25.768Z,7.50
2022-10-16T09:11:51.960Z,8.40
2022-10-16T09:15:01.798Z,7.20
2022-10-16T09:17:30.746Z,8.10
2022-10-16T09:20:29.182Z,8.70
2022-10-16T09:23:28.632Z,10.60
2022-10-16T09:26:02.268Z,8.30
2022-10-16T09:28:33.502Z,8.40
2022-10-16T09:31:05.384Z,8.30
2022-10-16T09:33:44.838Z,6.70
2022-10-16T09:36:24.140Z,7.50
2022-10-16T09:39:17.735Z,6.70
2022-10-16T09:41:55.557Z,8.50
2022-10-16T09:44:35.654Z,6.80
2022-10-16T09:47:26.957Z,7.10
2022-10-16T09:50:05.323Z,9.70
2022-10-16T09:52:37.619Z,12.90
2022-10-16T09:55:19.744Z,8.20
2022-10-16T09:57:55.657Z,7.40
2022-10-16T10:00:40.997Z,5.90
2022-10-16T10:03:51.467Z,5.60
2022-10-16T10:07:08.517Z,6.80
2022-10-16T10:09:41.475Z,8.50
2022-10-16T10:12:32.731Z,6.30
2022-10-16T10:15:24.038Z,5.10
2022-10-16T10:18:05.390Z,5.10
2022-10-16T10:23:48.254Z,10.50
2022-10-16T10:27:02.348Z,6.60
2022-10-16T10:30:21.303Z,4.60
2022-10-16T10:33:28.380Z,4.20
2022-10-16T10:36:51.188Z,4.30
2022-10-16T10:39:36.017Z,4.60
2022-10-16T10:42:26.998Z,6.70
2022-10-16T10:45:36.919Z,5.40
2022-10-16T10:48:48.831Z,4.10
2022-10-16T10:51:36.820Z,4.60
2022-10-16T10:54:26.124Z,3.40
2022-10-16T10:57:43.199Z,3.50
2022-10-16T11:00:48.064Z,3.30
2022-10-16T11:03:58.463Z,3.10
2022-10-16T11:07:21.913Z,3.20
2022-10-16T11:10:27.704Z,4.90
2022-10-16T11:13:31.361Z,4.30
2022-10-16T11:16:40.245Z,4.50
2022-10-16T11:19:50.871Z,4.20
2022-10-16T11:22:40.812Z,5.10
2022-10-16T11:26:01.711Z,4.60
2022-10-16T11:29:12.304Z,4.40
2022-10-16T11:32:39.058Z,4.90
2022-10-16T11:35:49.442Z,4.00
2022-10-16T11:39:01.856Z,4.60
2022-10-16T11:42:14.565Z,4.40
2022-10-16T11:45:28.503Z,4.50
2022-10-16T11:48:40.169Z,5.20
2022-10-16T11:51:36.029Z,4.60
2022-10-16T11:54:48.413Z,4.00
2022-10-16T11:57:35.253Z,3.70
2022-10-16T12:00:56.618Z,4.40
2022-10-16T12:04:20.126Z,2.80
2022-10-16T12:07:23.344Z,3.00
2022-10-16T12:10:08.343Z,3.40
2022-10-16T12:13:03.197Z,4.00
2022-10-16T12:15:59.202Z,5.10
2022-10-16T12:18:37.486Z,5.30
2022-10-16T12:21:34.878Z,8.50
2022-10-16T12:24:57.413Z,17.40
2022-10-16T12:27:41.588Z,5.30
2022-10-16T12:30:35.197Z,4.70
2022-10-16T12:33:38.031Z,4.70
2022-10-16T12:36:32.735Z,3.80
2022-10-16T12:39:33.243Z,4.60
2022-10-16T12:42:36.399Z,4.70
2022-10-16T12:45:52.692Z,4.90
2022-10-16T12:49:05.240Z,4.80
2022-10-16T12:51:46.428Z,4.00
2022-10-16T12:54:35.720Z,5.20
2022-10-16T12:58:21.762Z,4.70
2022-10-16T13:01:36.713Z,5.00
2022-10-16T13:04:40.828Z,5.80
2022-10-16T13:08:00.467Z,14.30
2022-10-16T13:11:17.732Z,5.40
2022-10-16T13:17:39.964Z,5.60
2022-10-16T13:21:00.661Z,4.90
2022-10-16T13:24:23.459Z,6.10
2022-10-16T13:27:18.312Z,4.00
2022-10-16T13:30:23.797Z,3.80
2022-10-16T13:33:22.470Z,4.30
2022-10-16T13:36:09.856Z,5.60
2022-10-16T13:39:27.001Z,6.40
2022-10-16T13:42:37.137Z,4.00
2022-10-16T13:45:24.322Z,4.00
2022-10-16T13:48:14.573Z,4.80
2022-10-16T13:51:02.527Z,6.30
2022-10-16T13:53:50.078Z,5.20
2022-10-16T13:56:28.810Z,4.20
2022-10-16T14:00:01.018Z,5.00
2022-10-16T14:03:06.461Z,4.00
2022-10-16T14:05:50.123Z,4.80
2022-10-16T14:08:43.335Z,4.70
2022-10-16T14:11:29.113Z,4.20
2022-10-16T14:14:08.186Z,3.30
2022-10-16T14:16:46.397Z,3.60
2022-10-16T14:19:31.099Z,4.80
2022-10-16T14:22:02.786Z,4.40
2022-10-16T14:24:36.512Z,3.90
2022-10-16T14:27:35.553Z,4.10
2022-10-16T14:30:22.790Z,5.30
2022-10-16T14:33:11.134Z,10.20
2022-10-16T14:35:53.484Z,13.30
2022-10-16T14:38:46.275Z,12.40
2022-10-16T14:41:30.928Z,6.40
2022-10-16T14:44:16.282Z,4.70
2022-10-16T14:46:51.397Z,4.10
2022-10-16T14:49:26.440Z,4.60
2022-10-16T14:52:18.450Z,4.30
2022-10-16T14:55:01.576Z,4.40
2022-10-16T14:57:46.449Z,4.10
2022-10-16T15:00:32.842Z,4.60
2022-10-16T15:03:12.309Z,4.40
2022-10-16T15:05:59.715Z,4.60
2022-10-16T15:08:37.606Z,4.20
2022-10-16T15:11:17.839Z,3.80
2022-10-16T15:13:48.043Z,4.40
2022-10-16T15:16:19.333Z,5.20
2022-10-16T15:18:50.159Z,5.00
2022-10-16T15:21:32.124Z,6.80
2022-10-16T15:24:02.203Z,6.10
2022-10-16T15:26:39.797Z,6.20
2022-10-16T15:29:13.092Z,10.70
2022-10-16T15:31:55.573Z,7.80
2022-10-16T15:34:31.601Z,8.00
2022-10-16T15:37:17.319Z,8.70
2022-10-16T15:40:44.052Z,9.50
2022-10-16T15:43:22.831Z,9.10
2022-10-16T15:46:44.613Z,8.60
2022-10-16T15:49:38.561Z,7.80
2022-10-16T15:52:25.742Z,10.00
2022-10-16T15:55:01.931Z,7.20
2022-10-16T15:57:33.625Z,7.50
2022-10-16T16:00:16.571Z,10.10
2022-10-16T16:02:55.636Z,11.40
2022-10-16T16:05:36.661Z,14.40
2022-10-16T16:08:19.175Z,10.50
2022-10-16T16:11:18.828Z,10.40
2022-10-16T16:13:48.274Z,9.90
2022-10-16T16:16:29.163Z,10.10
2022-10-16T16:19:11.830Z,11.90
2022-10-16T16:21:54.027Z,11.70
2022-10-16T16:24:37.037Z,13.80
2022-10-16T16:27:10.629Z,13.70
2022-10-16T16:29:40.957Z,12.90
2022-10-16T16:32:14.820Z,13.20
2022-10-16T16:34:48.987Z,13.30
2022-10-16T16:37:30.974Z,13.90
2022-10-16T16:40:23.666Z,11.40
2022-10-16T16:42:52.906Z,11.90
2022-10-16T16:47:56.006Z,13.70
2022-10-16T16:50:28.715Z,14.80
2022-10-16T16:52:59.841Z,14.40
2022-10-16T16:55:33.202Z,15.00
2022-10-16T16:58:05.050Z,14.30
2022-10-16T17:00:56.668Z,15.40
2022-10-16T17:03:48.728Z,16.50
2022-10-16T17:06:31.436Z,16.50
2022-10-16T17:09:10.049Z,15.30
2022-10-16T17:11:48.617Z,17.90
2022-10-16T17:14:22.323Z,19.50
2022-10-16T17:16:53.520Z,20.70
2022-10-16T17:19:30.304Z,16.90
2022-10-16T17:24:32.274Z,19.00
2022-10-16T17:27:10.163Z,18.60
2022-10-16T17:29:42.016Z,18.90
2022-10-16T17:32:16.252Z,18.90
2022-10-16T17:34:45.832Z,20.50
2022-10-16T17:37:31.493Z,20.30
2022-10-16T17:40:03.180Z,23.60
2022-10-16T17:42:37.008Z,24.60
2022-10-16T17:45:07.275Z,23.50
2022-10-16T17:47:42.011Z,23.80
2022-10-16T17:50:19.548Z,21.90
2022-10-16T17:52:49.776Z,22.30
2022-10-16T17:55:24.851Z,22.00
2022-10-16T17:57:57.572Z,24.00
2022-10-16T18:00:40.580Z,26.50
2022-10-16T18:03:14.304Z,24.40
2022-10-16T18:05:45.769Z,24.10
2022-10-16T18:08:16.658Z,23.00
2022-10-16T18:10:52.095Z,23.20
2022-10-16T18:13:22.958Z,22.00
2022-10-16T18:16:04.880Z,22.90
2022-10-16T18:21:06.764Z,23.20
2022-10-16T18:23:37.397Z,25.60
2022-10-16T18:26:07.993Z,26.50
2022-10-16T18:28:37.698Z,27.40
2022-10-16T18:31:13.461Z,25.80
2022-10-16T18:33:50.929Z,27.50
2022-10-16T18:36:32.819Z,28.60
2022-10-16T18:39:12.045Z,30.30
2022-10-16T18:41:47.656Z,31.40
2022-10-16T18:44:17.530Z,34.80
2022-10-16T18:46:48.863Z,36.10
2022-10-16T18:49:17.906Z,37.80
2022-10-16T18:51:50.925Z,40.60
2022-10-16T18:54:20.254Z,51.80
2022-10-16T18:57:08.697Z,72.90
2022-10-16T18:59:53.556Z,84.70
2022-10-16T19:02:29.555Z,89.00
2022-10-16T19:05:26.724Z,88.20
2022-10-16T19:08:05.694Z,91.90
2022-10-16T19:10:40.328Z,89.50
2022-10-16T19:13:12.399Z,82.70
2022-10-16T19:15:49.787Z,79.60
2022-10-16T19:18:57.007Z,77.30
2022-10-16T19:21:29.322Z,60.90
2022-10-16T19:29:04.653Z,46.60
2022-10-16T19:31:35.738Z,43.60
2022-10-16T19:34:11.823Z,40.60
2022-10-16T19:36:41.523Z,39.70
2022-10-16T19:41:48.318Z,35.50
2022-10-16T19:44:19.991Z,32.90
2022-10-16T19:46:53.897Z,31.40
2022-10-16T19:49:26.240Z,32.10
2022-10-16T19:52:00.954Z,29.70
2022-10-16T19:54:30.472Z,32.00
2022-10-16T19:57:00.407Z,31.20
2022-10-16T19:59:30.669Z,32.90
2022-10-16T20:02:01.511Z,28.90
2022-10-16T20:04:37.765Z,30.30
2022-10-16T20:07:13.586Z,29.30
2022-10-16T20:09:56.787Z,29.00
2022-10-16T20:12:32.788Z,28.70
2022-10-16T20:15:05.754Z,29.30
2022-10-16T20:17:35.015Z,27.80
2022-10-16T20:20:10.472Z,29.80
2022-10-16T20:22:39.755Z,31.30
2022-10-16T20:25:10.534Z,31.30
2022-10-16T20:27:46.198Z,32.80
2022-10-16T20:30:17.918Z,32.40
2022-10-16T20:32:50.521Z,31.40
2022-10-16T20:35:27.509Z,30.80
2022-10-16T20:37:59.663Z,32.30
2022-10-16T20:40:42.797Z,31.70
2022-10-16T20:43:18.761Z,31.00
2022-10-16T20:46:04.726Z,31.70
2022-10-16T20:48:44.351Z,33.50
2022-10-16T20:51:27.176Z,33.30
2022-10-16T20:54:07.945Z,30.30
2022-10-16T20:56:42.965Z,29.50
2022-10-16T20:59:18.810Z,29.60
2022-10-16T21:06:14.943Z,30.20
2022-10-16T21:09:58.719Z,30.20
2022-10-16T21:13:25.902Z,31.10
2022-10-16T21:19:25.242Z,30.40
2022-10-16T21:26:03.467Z,32.90
2022-10-16T21:28:40.017Z,31.90
2022-10-16T21:31:22.653Z,31.50
2022-10-16T21:33:58.903Z,31.80
2022-10-16T21:36:40.659Z,30.00
2022-10-16T21:39:17.512Z,30.80
2022-10-16T21:41:53.577Z,27.70
2022-10-16T21:44:23.083Z,27.10
2022-10-16T21:46:56.218Z,27.30
2022-10-16T21:49:44.234Z,27.50
2022-10-16T21:52:18.893Z,30.40
2022-10-16T21:55:00.459Z,29.00
2022-10-16T21:57:33.864Z,27.40
2022-10-16T22:00:12.143Z,28.50
2022-10-16T22:02:42.694Z,26.10
2022-10-16T22:05:16.673Z,27.40
2022-10-16T22:07:47.929Z,27.00
2022-10-16T22:10:17.112Z,27.70
2022-10-16T22:12:46.227Z,28.00
2022-10-16T22:15:19.823Z,28.10
2022-10-16T22:17:51.490Z,28.20
2022-10-16T22:20:26.025Z,27.70
2022-10-16T22:22:56.313Z,26.60
2022-10-16T22:25:26.526Z,27.80
2022-10-16T22:27:55.261Z,28.20
2022-10-16T22:30:24.030Z,27.90
2022-10-16T22:32:52.891Z,27.90
2022-10-16T22:35:21.842Z,29.20
2022-10-16T22:37:50.672Z,27.20
2022-10-16T22:40:19.683Z,27.20
2022-10-16T22:45:23.913Z,28.00
2022-10-16T22:47:55.279Z,27.20
2022-10-16T22:50:29.679Z,26.80
2022-10-16T22:52:58.782Z,26.70
2022-10-16T22:55:31.428Z,26.70
2022-10-16T22:58:00.382Z,26.20
2022-10-16T23:00:29.373Z,27.10
2022-10-16T23:02:58.243Z,28.10
2022-10-16T23:05:27.107Z,27.20
2022-10-16T23:07:55.985Z,29.10
2022-10-16T23:10:29.926Z,27.20
2022-10-16T23:13:01.410Z,27.80
2022-10-16T23:15:30.547Z,29.30
2022-10-16T23:18:01.579Z,28.20
2022-10-16T23:20:30.626Z,29.10
2022-10-16T23:23:03.956Z,27.00
2022-10-16T23:25:33.173Z,29.40
2022-10-16T23:28:02.511Z,28.40
2022-10-16T23:30:31.404Z,29.20
2022-10-16T23:33:00.203Z,28.60
2022-10-16T23:35:29.093Z,28.50
2022-10-16T23:37:58.456Z,29.50
2022-10-16T23:40:32.301Z,30.20
2022-10-16T23:43:03.640Z,28.80
2022-10-16T23:45:32.490Z,30.90
2022-10-16T23:48:01.425Z,30.10
2022-10-16T23:50:30.900Z,30.40
2022-10-16T23:52:59.919Z,29.00
2022-10-16T23:55:28.800Z,28.30
2022-10-16T23:57:57.635Z,27.40
